createdAt,value
2023-03-13T00:02:06.124Z,5.00
2023-03-13T00:04:33.291Z,5.00
2023-03-13T00:07:00.542Z,5.65
2023-03-13T00:09:28.056Z,5.28
2023-03-13T00:11:55.482Z,5.30
2023-03-13T00:14:25.026Z,4.82
2023-03-13T00:16:53.507Z,5.10
2023-03-13T00:19:20.957Z,5.38
2023-03-13T00:21:49.735Z,5.22
2023-03-13T00:24:16.984Z,5.10
2023-03-13T00:26:44.206Z,5.00
2023-03-13T00:29:12.275Z,5.05
2023-03-13T00:31:39.779Z,5.03
2023-03-13T00:34:08.197Z,4.70
2023-03-13T00:36:36.417Z,5.03
2023-03-13T00:39:06.494Z,5.00
2023-03-13T00:41:34.446Z,5.05
2023-03-13T00:44:02.578Z,5.20
2023-03-13T00:46:31.402Z,5.00
2023-03-13T00:49:01.289Z,4.75
2023-03-13T00:51:29.607Z,4.90
2023-03-13T00:54:02.636Z,5.15
2023-03-13T00:56:30.276Z,5.05
2023-03-13T00:58:57.633Z,4.90
2023-03-13T01:01:27.780Z,5.03
2023-03-13T01:04:07.020Z,5.18
2023-03-13T01:06:37.108Z,5.20
2023-03-13T01:09:06.046Z,5.18
2023-03-13T01:11:37.317Z,5.32
2023-03-13T01:14:08.602Z,5.45
2023-03-13T01:16:37.453Z,6.53
2023-03-13T01:19:11.817Z,5.05
2023-03-13T01:21:40.920Z,5.13
2023-03-13T01:24:09.335Z,5.45
2023-03-13T01:26:37.560Z,5.10
2023-03-13T01:29:05.509Z,5.03
2023-03-13T01:31:35.541Z,5.13
2023-03-13T01:34:05.368Z,4.85
2023-03-13T01:36:33.270Z,4.47
2023-03-13T01:39:01.765Z,4.82
2023-03-13T01:41:31.528Z,5.40
2023-03-13T01:43:59.423Z,5.30
2023-03-13T01:46:31.510Z,5.50
2023-03-13T01:49:04.746Z,5.40
2023-03-13T01:51:40.309Z,5.45
2023-03-13T01:54:25.131Z,5.45
2023-03-13T01:57:03.361Z,7.68
2023-03-13T01:59:40.845Z,5.85
2023-03-13T02:02:16.548Z,5.93
2023-03-13T02:04:48.726Z,6.65
2023-03-13T02:07:21.703Z,6.30
2023-03-13T02:09:52.887Z,6.43
2023-03-13T02:12:37.299Z,6.18
2023-03-13T02:15:13.776Z,6.38
2023-03-13T02:17:42.248Z,5.85
2023-03-13T02:20:14.350Z,6.40
2023-03-13T02:22:50.175Z,6.47
2023-03-13T02:25:52.657Z,6.10
2023-03-13T02:28:33.577Z,6.05
2023-03-13T02:31:01.942Z,5.88
2023-03-13T02:33:35.929Z,5.82
2023-03-13T02:36:05.567Z,6.00
2023-03-13T02:38:37.195Z,5.15
2023-03-13T02:41:06.750Z,5.55
2023-03-13T02:43:36.756Z,5.68
2023-03-13T02:46:10.996Z,4.90
2023-03-13T02:48:44.408Z,5.00
2023-03-13T02:51:30.063Z,5.20
2023-03-13T02:54:06.157Z,4.78
2023-03-13T02:56:37.186Z,4.60
2023-03-13T02:59:04.988Z,4.60
2023-03-13T03:01:33.085Z,4.53
2023-03-13T03:04:00.230Z,4.55
2023-03-13T03:06:27.667Z,4.70
2023-03-13T03:08:55.064Z,4.35
2023-03-13T03:11:22.720Z,4.88
2023-03-13T03:13:50.149Z,4.80
2023-03-13T03:16:20.961Z,4.65
2023-03-13T03:18:48.370Z,4.95
2023-03-13T03:21:15.943Z,5.47
2023-03-13T03:23:45.541Z,5.65
2023-03-13T03:26:14.851Z,6.07
2023-03-13T03:28:42.649Z,7.20
2023-03-13T03:31:13.356Z,5.95
2023-03-13T03:33:41.983Z,6.25
2023-03-13T03:36:15.294Z,5.95
2023-03-13T03:38:43.590Z,6.50
2023-03-13T03:41:14.407Z,6.15
2023-03-13T03:43:42.214Z,6.47
2023-03-13T03:46:10.201Z,6.30
2023-03-13T03:48:38.046Z,6.78
2023-03-13T03:51:06.046Z,6.25
2023-03-13T03:53:34.494Z,7.03
2023-03-13T03:56:02.924Z,6.88
2023-03-13T03:58:30.557Z,7.03
2023-03-13T04:00:58.640Z,6.50
2023-03-13T04:03:26.503Z,6.60
2023-03-13T04:05:56.016Z,7.35
2023-03-13T04:08:23.624Z,6.68
2023-03-13T04:10:51.334Z,6.53
2023-03-13T04:13:18.795Z,6.50
2023-03-13T04:15:46.183Z,6.72
2023-03-13T04:18:13.569Z,7.18
2023-03-13T04:20:47.008Z,7.45
2023-03-13T04:23:15.178Z,5.78
2023-03-13T04:25:42.654Z,6.50
2023-03-13T04:28:11.043Z,6.78
2023-03-13T04:30:38.683Z,6.30
2023-03-13T04:33:06.026Z,6.90
2023-03-13T04:35:33.783Z,6.28
2023-03-13T04:38:02.819Z,6.85
2023-03-13T04:40:36.090Z,7.30
2023-03-13T04:43:05.483Z,6.97
2023-03-13T04:45:39.194Z,7.72
2023-03-13T04:48:06.807Z,7.15
2023-03-13T04:50:34.110Z,8.07
2023-03-13T04:53:01.578Z,8.70
2023-03-13T04:55:29.062Z,8.45
2023-03-13T04:57:57.436Z,8.05
2023-03-13T05:00:25.588Z,8.38
2023-03-13T05:02:54.033Z,8.07
2023-03-13T05:05:21.598Z,8.82
2023-03-13T05:07:50.087Z,8.50
2023-03-13T05:10:17.476Z,8.57
2023-03-13T05:12:44.549Z,8.48
2023-03-13T05:15:13.998Z,8.70
2023-03-13T05:17:42.491Z,8.68
2023-03-13T05:20:12.351Z,10.07
2023-03-13T05:22:39.482Z,9.40
2023-03-13T05:25:07.073Z,9.32
2023-03-13T05:27:34.421Z,10.30
2023-03-13T05:30:02.927Z,10.35
2023-03-13T05:32:30.359Z,8.95
2023-03-13T05:34:58.766Z,9.25
2023-03-13T05:37:27.331Z,9.70
2023-03-13T05:39:55.697Z,9.02
2023-03-13T05:42:22.828Z,8.38
2023-03-13T05:44:49.957Z,10.18
2023-03-13T05:47:19.252Z,9.77
2023-03-13T05:49:47.811Z,10.40
2023-03-13T05:52:15.291Z,10.85
2023-03-13T05:54:42.414Z,9.13
2023-03-13T05:57:09.534Z,10.88
2023-03-13T05:59:36.904Z,9.48
2023-03-13T06:02:04.538Z,9.70
2023-03-13T06:04:31.623Z,11.32
2023-03-13T06:06:58.809Z,9.48
2023-03-13T06:09:26.319Z,9.65
2023-03-13T06:11:53.791Z,10.05
2023-03-13T06:14:21.189Z,9.50
2023-03-13T06:16:48.611Z,9.15
2023-03-13T06:19:17.141Z,9.10
2023-03-13T06:21:44.599Z,9.30
2023-03-13T06:24:11.964Z,9.07
2023-03-13T06:26:39.047Z,9.18
2023-03-13T06:29:08.379Z,9.18
2023-03-13T06:31:36.099Z,8.65
2023-03-13T06:34:05.499Z,7.32
2023-03-13T06:36:33.040Z,7.95
2023-03-13T06:39:00.242Z,8.05
2023-03-13T06:41:28.047Z,8.50
2023-03-13T06:43:56.586Z,6.97
2023-03-13T06:46:25.565Z,6.80
2023-03-13T06:48:53.869Z,7.07
2023-03-13T06:51:22.761Z,8.35
2023-03-13T06:53:52.637Z,7.15
2023-03-13T06:56:22.009Z,7.00
2023-03-13T06:58:50.913Z,6.70
2023-03-13T07:01:18.656Z,7.53
2023-03-13T07:03:47.920Z,6.93
2023-03-13T07:06:16.172Z,6.35
2023-03-13T07:08:44.471Z,6.95
2023-03-13T07:11:14.743Z,6.78
2023-03-13T07:13:43.310Z,6.45
2023-03-13T07:16:13.903Z,6.78
2023-03-13T07:18:47.504Z,6.93
2023-03-13T07:21:15.606Z,6.72
2023-03-13T07:23:44.581Z,6.57
2023-03-13T07:26:17.967Z,7.00
2023-03-13T07:28:45.232Z,7.75
2023-03-13T07:31:19.835Z,6.60
2023-03-13T07:33:48.269Z,8.07
2023-03-13T07:36:17.071Z,7.90
2023-03-13T07:38:47.713Z,7.45
2023-03-13T07:41:15.096Z,7.80
2023-03-13T07:43:42.724Z,7.90
2023-03-13T07:46:13.198Z,7.40
2023-03-13T07:48:43.401Z,7.40
2023-03-13T07:51:23.283Z,8.05
2023-03-13T07:53:53.279Z,6.85
2023-03-13T07:56:24.097Z,6.57
2023-03-13T07:58:51.625Z,6.97
2023-03-13T08:01:24.263Z,6.22
2023-03-13T08:03:54.829Z,6.47
2023-03-13T08:06:24.541Z,6.47
2023-03-13T08:08:52.362Z,6.32
2023-03-13T08:11:27.300Z,5.47
2023-03-13T08:13:55.689Z,5.25
2023-03-13T08:16:28.805Z,4.70
2023-03-13T08:18:58.762Z,6.65
2023-03-13T08:21:32.164Z,4.70
2023-03-13T08:24:02.883Z,6.10
2023-03-13T08:26:32.366Z,6.60
2023-03-13T08:29:02.916Z,6.57
2023-03-13T08:31:38.954Z,6.13
2023-03-13T08:34:06.294Z,6.90
2023-03-13T08:36:36.868Z,6.55
2023-03-13T08:39:07.744Z,6.07
2023-03-13T08:41:37.416Z,6.82
2023-03-13T08:44:05.991Z,6.30
2023-03-13T08:46:35.367Z,6.45
2023-03-13T08:49:03.743Z,5.88
2023-03-13T08:51:32.233Z,6.45
2023-03-13T08:53:59.799Z,6.00
2023-03-13T08:56:30.624Z,5.78
2023-03-13T08:59:00.431Z,4.78
2023-03-13T09:01:30.412Z,5.40
2023-03-13T09:03:58.000Z,4.50
2023-03-13T09:06:27.376Z,5.30
2023-03-13T09:08:57.514Z,4.88
2023-03-13T09:11:30.743Z,5.13
2023-03-13T09:14:01.165Z,5.07
2023-03-13T09:16:30.241Z,4.90
2023-03-13T09:18:58.387Z,3.65
2023-03-13T09:21:31.627Z,4.10
2023-03-13T09:24:00.304Z,4.60
2023-03-13T09:26:28.228Z,4.10
2023-03-13T09:28:55.890Z,3.80
2023-03-13T09:31:31.921Z,3.38
2023-03-13T09:34:00.266Z,3.58
2023-03-13T09:36:28.473Z,3.42
2023-03-13T09:38:57.921Z,3.30
2023-03-13T09:41:43.355Z,3.40
2023-03-13T09:44:23.466Z,3.33
2023-03-13T09:46:54.551Z,3.80
2023-03-13T09:49:47.032Z,3.83
2023-03-13T09:52:32.289Z,3.15
2023-03-13T09:55:01.992Z,3.55
2023-03-13T09:57:38.458Z,3.35
2023-03-13T10:00:14.061Z,2.90
2023-03-13T10:03:13.103Z,3.47
2023-03-13T10:05:49.710Z,3.50
2023-03-13T10:08:20.189Z,3.45
2023-03-13T10:10:50.810Z,3.63
2023-03-13T10:13:42.532Z,2.85
2023-03-13T10:16:18.239Z,3.45
2023-03-13T10:18:49.481Z,3.58
2023-03-13T10:21:22.566Z,4.13
2023-03-13T10:24:13.325Z,3.33
2023-03-13T10:26:40.683Z,3.42
2023-03-13T10:29:22.133Z,3.33
2023-03-13T10:32:05.563Z,3.80
2023-03-13T10:34:59.259Z,4.22
2023-03-13T10:37:40.839Z,3.80
2023-03-13T10:40:25.454Z,3.45
2023-03-13T10:43:02.647Z,3.75
2023-03-13T10:45:35.768Z,3.40
2023-03-13T10:48:12.837Z,2.92
2023-03-13T10:50:44.969Z,3.25
2023-03-13T10:53:21.574Z,3.47
2023-03-13T10:55:49.896Z,2.83
2023-03-13T10:58:54.822Z,2.95
2023-03-13T11:01:23.298Z,3.50
2023-03-13T11:03:53.428Z,3.53
2023-03-13T11:06:21.948Z,3.63
2023-03-13T11:08:49.390Z,3.90
2023-03-13T11:11:20.890Z,2.53
2023-03-13T11:13:48.266Z,3.13
2023-03-13T11:16:21.672Z,4.22
2023-03-13T11:19:08.505Z,3.50
2023-03-13T11:21:44.094Z,4.10
2023-03-13T11:24:27.344Z,3.58
2023-03-13T11:27:08.404Z,3.80
2023-03-13T11:29:54.312Z,2.80
2023-03-13T11:32:31.792Z,3.33
2023-03-13T11:35:07.834Z,3.90
2023-03-13T11:37:40.001Z,4.05
2023-03-13T11:40:37.285Z,3.95
2023-03-13T11:43:25.657Z,3.70
2023-03-13T11:46:19.921Z,3.60
2023-03-13T11:49:12.727Z,3.72
2023-03-13T11:52:09.147Z,3.08
2023-03-13T11:55:01.452Z,3.42
2023-03-13T11:58:13.076Z,3.45
2023-03-13T12:00:51.388Z,3.67
2023-03-13T12:03:31.787Z,3.15
2023-03-13T12:06:01.097Z,3.70
2023-03-13T12:08:46.571Z,3.20
2023-03-13T12:12:03.935Z,3.53
2023-03-13T12:14:53.941Z,3.95
2023-03-13T12:17:29.455Z,3.35
2023-03-13T12:20:18.833Z,3.33
2023-03-13T12:22:57.440Z,3.58
2023-03-13T12:25:30.822Z,3.38
2023-03-13T12:28:35.745Z,2.47
2023-03-13T12:31:18.294Z,3.58
2023-03-13T12:34:03.679Z,3.42
2023-03-13T12:36:53.602Z,3.40
2023-03-13T12:39:32.434Z,2.90
2023-03-13T12:42:24.004Z,2.88
2023-03-13T12:44:51.739Z,3.65
2023-03-13T12:47:33.723Z,2.92
2023-03-13T12:50:07.352Z,2.97
2023-03-13T12:55:37.941Z,3.60
2023-03-13T12:58:29.106Z,3.60
2023-03-13T13:01:04.591Z,3.05
2023-03-13T13:03:36.730Z,3.15
2023-03-13T13:06:13.790Z,2.78
2023-03-13T13:08:43.109Z,2.85
2023-03-13T13:11:44.191Z,2.90
2023-03-13T13:14:17.594Z,2.95
2023-03-13T13:16:48.791Z,3.30
2023-03-13T13:19:25.370Z,2.42
2023-03-13T13:22:31.005Z,2.80
2023-03-13T13:25:01.582Z,2.97
2023-03-13T13:27:37.241Z,3.33
2023-03-13T13:30:19.766Z,3.58
2023-03-13T13:32:48.930Z,3.42
2023-03-13T13:35:21.210Z,3.72
2023-03-13T13:37:49.922Z,3.53
2023-03-13T13:40:20.473Z,3.90
2023-03-13T13:42:56.053Z,3.97
2023-03-13T13:45:31.447Z,3.33
2023-03-13T13:48:19.935Z,3.33
2023-03-13T13:51:12.271Z,3.85
2023-03-13T13:53:56.213Z,3.65
2023-03-13T13:59:05.582Z,2.83
2023-03-13T14:01:33.985Z,3.15
2023-03-13T14:04:20.112Z,2.80
2023-03-13T14:06:52.540Z,3.15
2023-03-13T14:09:54.980Z,4.07
2023-03-13T14:12:35.433Z,3.53
2023-03-13T14:15:27.043Z,3.30
2023-03-13T14:18:22.228Z,4.28
2023-03-13T14:21:15.706Z,3.92
2023-03-13T14:23:58.455Z,2.65
2023-03-13T14:26:29.568Z,3.85
2023-03-13T14:28:59.687Z,3.40
2023-03-13T14:31:36.553Z,4.30
2023-03-13T14:34:07.216Z,4.10
2023-03-13T14:37:14.911Z,6.40
2023-03-13T14:39:46.784Z,4.10
2023-03-13T14:42:19.139Z,3.80
2023-03-13T14:44:50.000Z,4.85
2023-03-13T14:47:21.067Z,4.38
2023-03-13T14:49:48.910Z,4.78
2023-03-13T14:52:26.816Z,3.85
2023-03-13T14:55:04.729Z,4.70
2023-03-13T14:57:33.029Z,4.47
2023-03-13T15:00:30.570Z,5.30
2023-03-13T15:03:22.065Z,5.50
2023-03-13T15:06:16.417Z,4.97
2023-03-13T15:11:27.776Z,5.43
2023-03-13T15:13:56.556Z,5.35
2023-03-13T15:16:26.276Z,4.47
2023-03-13T15:18:55.151Z,5.18
2023-03-13T15:21:31.432Z,4.57
2023-03-13T15:24:15.810Z,4.82
2023-03-13T15:26:43.199Z,5.28
2023-03-13T15:29:13.906Z,5.50
2023-03-13T15:31:42.157Z,5.35
2023-03-13T15:34:15.198Z,5.03
2023-03-13T15:36:43.139Z,5.53
2023-03-13T15:39:15.983Z,5.93
2023-03-13T15:41:43.373Z,4.97
2023-03-13T15:44:10.771Z,5.03
2023-03-13T15:46:38.836Z,4.70
2023-03-13T15:49:11.593Z,5.05
2023-03-13T15:51:44.871Z,4.33
2023-03-13T15:54:12.258Z,5.35
2023-03-13T15:56:40.223Z,4.90
2023-03-13T15:59:16.496Z,6.50
2023-03-13T16:01:45.445Z,6.25
2023-03-13T16:04:13.910Z,6.15
2023-03-13T16:06:43.080Z,5.90
2023-03-13T16:09:12.585Z,5.85
2023-03-13T16:11:41.954Z,6.35
2023-03-13T16:14:09.404Z,4.60
2023-03-13T16:16:37.826Z,4.85
2023-03-13T16:19:05.436Z,4.87
2023-03-13T16:21:35.457Z,4.50
2023-03-13T16:31:33.859Z,4.82
2023-03-13T16:34:02.523Z,4.57
2023-03-13T16:36:33.311Z,4.70
2023-03-13T16:39:03.402Z,4.70
2023-03-13T16:41:30.845Z,4.43
2023-03-13T16:44:04.394Z,4.63
2023-03-13T16:46:59.137Z,4.80
2023-03-13T16:49:31.836Z,3.97
2023-03-13T16:51:59.334Z,4.10
2023-03-13T16:54:34.300Z,4.40
2023-03-13T16:57:04.696Z,4.68
2023-03-13T16:59:32.492Z,4.20
2023-03-13T17:01:59.713Z,4.45
2023-03-13T17:04:26.927Z,4.53
2023-03-13T17:06:56.865Z,4.90
2023-03-13T17:09:25.305Z,4.00
2023-03-13T17:11:52.766Z,5.80
2023-03-13T17:14:21.405Z,4.75
2023-03-13T17:16:50.020Z,5.43
2023-03-13T17:19:17.828Z,4.80
2023-03-13T17:21:45.702Z,4.65
2023-03-13T17:24:14.402Z,5.32
2023-03-13T17:26:48.217Z,5.55
2023-03-13T17:29:19.590Z,5.40
2023-03-13T17:31:47.659Z,5.10
2023-03-13T17:34:17.296Z,4.82
2023-03-13T17:36:50.884Z,5.45
2023-03-13T17:39:19.705Z,6.30
2023-03-13T17:41:47.756Z,5.63
2023-03-13T17:44:15.182Z,5.57
2023-03-13T17:46:47.964Z,5.13
2023-03-13T17:49:17.743Z,5.40
2023-03-13T17:51:46.675Z,5.22
2023-03-13T17:54:16.040Z,4.70
2023-03-13T17:56:47.781Z,5.22
2023-03-13T17:59:20.056Z,5.28
2023-03-13T18:01:48.321Z,5.35
2023-03-13T18:04:15.956Z,4.68
2023-03-13T18:06:45.917Z,5.53
2023-03-13T18:09:22.262Z,5.68
2023-03-13T18:11:56.071Z,5.80
2023-03-13T18:14:26.157Z,5.05
2023-03-13T18:16:57.985Z,4.68
2023-03-13T18:19:28.749Z,4.45
2023-03-13T18:21:57.071Z,5.05
2023-03-13T18:24:26.102Z,5.10
2023-03-13T18:26:56.834Z,4.50
2023-03-13T18:29:30.722Z,4.85
2023-03-13T18:32:01.325Z,4.70
2023-03-13T18:34:30.313Z,4.47
2023-03-13T18:37:04.098Z,4.57
2023-03-13T18:39:33.553Z,4.90
2023-03-13T18:42:02.775Z,5.78
2023-03-13T18:44:31.453Z,5.50
2023-03-13T18:46:59.026Z,5.43
2023-03-13T18:49:33.176Z,4.95
2023-03-13T18:52:02.582Z,4.88
2023-03-13T18:54:30.746Z,5.10
2023-03-13T18:56:58.681Z,4.97
2023-03-13T18:59:27.332Z,5.00
2023-03-13T19:01:55.521Z,4.88
2023-03-13T19:04:23.338Z,5.30
2023-03-13T19:06:51.905Z,4.70
2023-03-13T19:09:42.272Z,4.82
2023-03-13T19:12:13.474Z,5.60
2023-03-13T19:14:44.817Z,5.13
2023-03-13T19:17:29.066Z,5.22
2023-03-13T19:19:58.605Z,5.03
2023-03-13T19:22:36.072Z,5.25
2023-03-13T19:25:05.201Z,5.25
2023-03-13T19:27:38.058Z,4.90
2023-03-13T19:30:17.869Z,4.55
2023-03-13T19:32:59.466Z,4.68
2023-03-13T19:35:28.017Z,4.20
2023-03-13T19:37:56.163Z,4.20
2023-03-13T19:40:30.504Z,4.63
2023-03-13T19:42:58.705Z,4.28
2023-03-13T19:45:28.028Z,4.20
2023-03-13T19:47:56.823Z,4.47
2023-03-13T19:50:32.404Z,4.60
2023-03-13T19:53:08.274Z,4.40
2023-03-13T19:55:38.840Z,5.00
2023-03-13T19:58:09.719Z,4.55
2023-03-13T20:00:37.907Z,4.40
2023-03-13T20:03:07.738Z,5.13
2023-03-13T20:05:37.597Z,5.05
2023-03-13T20:08:18.443Z,5.32
2023-03-13T20:10:47.182Z,5.05
2023-03-13T20:13:15.825Z,5.50
2023-03-13T20:15:44.332Z,4.55
2023-03-13T20:18:12.676Z,5.68
2023-03-13T20:20:41.991Z,5.88
2023-03-13T20:23:10.228Z,4.47
2023-03-13T20:25:39.220Z,4.43
2023-03-13T20:28:07.974Z,3.92
2023-03-13T20:30:40.829Z,4.15
2023-03-13T20:33:11.839Z,4.28
2023-03-13T20:35:41.395Z,4.28
2023-03-13T20:38:12.182Z,3.78
2023-03-13T20:40:40.073Z,3.90
2023-03-13T20:43:08.089Z,4.00
2023-03-13T20:45:40.022Z,4.10
2023-03-13T20:48:08.934Z,3.92
2023-03-13T20:50:37.073Z,4.13
2023-03-13T20:53:06.576Z,3.92
2023-03-13T20:55:36.985Z,4.57
2023-03-13T20:58:05.896Z,3.92
2023-03-13T21:00:36.222Z,3.60
2023-03-13T21:03:04.109Z,3.70
2023-03-13T21:05:33.869Z,3.58
2023-03-13T21:08:02.257Z,3.40
2023-03-13T21:10:32.851Z,2.90
2023-03-13T21:13:02.133Z,3.22
2023-03-13T21:15:30.085Z,3.58
2023-03-13T21:17:57.881Z,3.45
2023-03-13T21:20:32.139Z,3.38
2023-03-13T21:22:59.800Z,3.58
2023-03-13T21:25:27.332Z,2.80
2023-03-13T21:27:55.043Z,3.65
2023-03-13T21:30:22.905Z,3.30
2023-03-13T21:32:50.510Z,3.08
2023-03-13T21:35:18.413Z,3.30
2023-03-13T21:37:46.619Z,3.25
2023-03-13T21:40:14.451Z,3.38
2023-03-13T21:42:41.932Z,3.40
2023-03-13T21:45:10.130Z,3.20
2023-03-13T21:47:38.573Z,2.65
2023-03-13T21:50:08.698Z,3.65
2023-03-13T21:52:40.730Z,3.25
2023-03-13T21:55:14.671Z,3.13
2023-03-13T21:57:42.343Z,2.97
2023-03-13T22:00:10.733Z,3.55
2023-03-13T22:02:39.371Z,3.30
2023-03-13T22:05:08.700Z,3.25
2023-03-13T22:07:36.836Z,3.70
2023-03-13T22:10:06.518Z,3.58
2023-03-13T22:12:34.110Z,3.03
2023-03-13T22:15:02.411Z,3.22
2023-03-13T22:17:35.588Z,3.15
2023-03-13T22:20:03.109Z,3.45
2023-03-13T22:22:33.093Z,2.97
2023-03-13T22:25:00.522Z,2.65
2023-03-13T22:27:27.936Z,3.20
2023-03-13T22:29:57.272Z,3.30
2023-03-13T22:32:26.105Z,2.95
2023-03-13T22:34:53.530Z,3.03
2023-03-13T22:37:22.662Z,3.70
2023-03-13T22:39:54.203Z,3.25
2023-03-13T22:42:28.522Z,3.00
2023-03-13T22:44:56.152Z,3.08
2023-03-13T22:47:26.173Z,2.90
2023-03-13T22:49:59.673Z,3.40
2023-03-13T22:52:31.200Z,2.78
2023-03-13T22:54:58.802Z,3.33
2023-03-13T22:57:29.413Z,3.17
2023-03-13T23:00:02.901Z,2.78
2023-03-13T23:02:30.318Z,3.70
2023-03-13T23:04:58.868Z,2.95
2023-03-13T23:07:29.992Z,3.33
2023-03-13T23:09:59.164Z,3.17
2023-03-13T23:12:27.095Z,2.92
2023-03-13T23:14:56.044Z,2.80
2023-03-13T23:17:23.265Z,3.70
2023-03-13T23:19:50.629Z,3.50
2023-03-13T23:22:22.148Z,3.00
2023-03-13T23:24:49.650Z,2.75
2023-03-13T23:27:17.101Z,2.92
2023-03-13T23:29:44.552Z,2.95
2023-03-13T23:32:12.354Z,2.80
2023-03-13T23:34:40.477Z,2.90
2023-03-13T23:37:08.003Z,2.70
2023-03-13T23:39:36.496Z,2.72
2023-03-13T23:42:03.959Z,2.88
2023-03-13T23:44:31.822Z,3.03
2023-03-13T23:47:00.370Z,2.72
2023-03-13T23:49:28.865Z,3.17
2023-03-13T23:51:56.218Z,2.55
2023-03-13T23:54:23.719Z,2.72
2023-03-13T23:56:51.201Z,2.85
2023-03-13T23:59:19.766Z,2.53
